sensor_id;sensor_type;location;lat;lon;timestamp;pressure;altitude;pressure_sealevel;temperature;humidity
53699;BME280;39591;53.952;27.612;2023-02-11T00:01:55;1018.8;;;1;68.3
53699;BME280;39591;53.952;27.612;2023-02-11T00:06:47;1018.7;;;1.1;67.9
53699;BME280;39591;53.952;27.612;2023-02-11T00:11:45;1018.6;;;1.1;68
53699;BME280;39591;53.952;27.612;2023-02-11T00:16:57;1018.5;;;1.2;67.9
53699;BME280;39591;53.952;27.612;2023-02-11T00:21:20;1018.5;;;1.1;68
53699;BME280;39591;53.952;27.612;2023-02-11T00:26:43;1018.5;;;1.1;68.1
53699;BME280;39591;53.952;27.612;2023-02-11T00:31:07;1018.4;;;1.1;68.3
53699;BME280;39591;53.952;27.612;2023-02-11T00:36:45;1018.3;;;1.1;68.6
53699;BME280;39591;53.952;27.612;2023-02-11T00:41:33;1018.2;;;1.1;68.8
53699;BME280;39591;53.952;27.612;2023-02-11T00:46:25;1018.2;;;1.2;68.5
53699;BME280;39591;53.952;27.612;2023-02-11T00:51:35;1018.1;;;1.2;68.6
53699;BME280;39591;53.952;27.612;2023-02-11T00:56:59;1018;;;1.3;68.6
53699;BME280;39591;53.952;27.612;2023-02-11T01:01:43;1018;;;1.3;68.4
53699;BME280;39591;53.952;27.612;2023-02-11T01:06:33;1017.9;;;1.3;68.5
53699;BME280;39591;53.952;27.612;2023-02-11T01:11:33;1017.8;;;1.3;68.6
53699;BME280;39591;53.952;27.612;2023-02-11T01:16:07;1017.6;;;1.4;68.3
53699;BME280;39591;53.952;27.612;2023-02-11T01:21:43;1017.6;;;1.3;68.1
53699;BME280;39591;53.952;27.612;2023-02-11T01:26:31;1017.5;;;1.3;68.3
53699;BME280;39591;53.952;27.612;2023-02-11T01:31:31;1017.5;;;1.4;68
53699;BME280;39591;53.952;27.612;2023-02-11T01:36:07;1017.4;;;1.4;67.8
53699;BME280;39591;53.952;27.612;2023-02-11T01:41:57;1017.3;;;1.4;68
53699;BME280;39591;53.952;27.612;2023-02-11T01:46:29;1017.2;;;1.5;68
53699;BME280;39591;53.952;27.612;2023-02-11T01:51:45;1017.1;;;1.6;67.7
53699;BME280;39591;53.952;27.612;2023-02-11T01:56:29;1017.1;;;1.5;68.1
53699;BME280;39591;53.952;27.612;2023-02-11T02:01:12;1017;;;1.5;68.3
53699;BME280;39591;53.952;27.612;2023-02-11T02:06:36;1017;;;1.5;68.5
53699;BME280;39591;53.952;27.612;2023-02-11T02:11:07;1016.8;;;1.6;68.5
53699;BME280;39591;53.952;27.612;2023-02-11T02:16:45;1016.7;;;1.6;68.5
53699;BME280;39591;53.952;27.612;2023-02-11T02:21:12;1016.6;;;1.5;69
53699;BME280;39591;53.952;27.612;2023-02-11T02:26:37;1016.6;;;1.5;69.5
53699;BME280;39591;53.952;27.612;2023-02-11T02:31:39;1016.5;;;1.5;69.5
53699;BME280;39591;53.952;27.612;2023-02-11T02:36:59;1016.3;;;1.4;69.9
53699;BME280;39591;53.952;27.612;2023-02-11T02:41:33;1016.2;;;1.4;70.2
53699;BME280;39591;53.952;27.612;2023-02-11T02:46:43;1016.2;;;1.3;70.9
53699;BME280;39591;53.952;27.612;2023-02-11T02:51:29;1016.1;;;1.3;71.3
53699;BME280;39591;53.952;27.612;2023-02-11T02:56:07;1016;;;1.3;71.4
53699;BME280;39591;53.952;27.612;2023-02-11T03:01:37;1015.9;;;1.3;71.6
53699;BME280;39591;53.952;27.612;2023-02-11T03:06:22;1015.8;;;1.2;71.9
53699;BME280;39591;53.952;27.612;2023-02-11T03:11:57;1015.8;;;1.2;71.9
53699;BME280;39591;53.952;27.612;2023-02-11T03:16:57;1015.8;;;1.2;72.2
53699;BME280;39591;53.952;27.612;2023-02-11T03:21:33;1015.7;;;1.3;72.4
53699;BME280;39591;53.952;27.612;2023-02-11T03:27:00;1015.6;;;1.3;72.2
53699;BME280;39591;53.952;27.612;2023-02-11T03:31:58;1015.6;;;1.2;72.5
53699;BME280;39591;53.952;27.612;2023-02-11T03:36:07;1015.4;;;1.2;72.8
53699;BME280;39591;53.952;27.612;2023-02-11T03:41:07;1015.2;;;1.3;72.5
53699;BME280;39591;53.952;27.612;2023-02-11T03:46:59;1015;;;1.3;72.5
53699;BME280;39591;53.952;27.612;2023-02-11T03:51:33;1015;;;1.2;73.5
53699;BME280;39591;53.952;27.612;2023-02-11T03:56:07;1014.9;;;1.2;74.3
53699;BME280;39591;53.952;27.612;2023-02-11T04:01:07;1014.8;;;1.3;73.7
53699;BME280;39591;53.952;27.612;2023-02-11T04:06:35;1014.8;;;1.2;73.3
53699;BME280;39591;53.952;27.612;2023-02-11T04:11:07;1014.7;;;1.2;73
53699;BME280;39591;53.952;27.612;2023-02-11T04:16:33;1014.6;;;1.2;73.8
53699;BME280;39591;53.952;27.612;2023-02-11T04:21:57;1014.4;;;1.3;75.1
53699;BME280;39591;53.952;27.612;2023-02-11T04:26:43;1014.3;;;1.3;73.9
53699;BME280;39591;53.952;27.612;2023-02-11T04:31:57;1014.1;;;1.2;73.5
53699;BME280;39591;53.952;27.612;2023-02-11T04:36:07;1013.9;;;1.1;76.4
53699;BME280;39591;53.952;27.612;2023-02-11T04:41:45;1013.7;;;1.2;75.8
53699;BME280;39591;53.952;27.612;2023-02-11T04:46:07;1013.6;;;1.2;78.4
53699;BME280;39591;53.952;27.612;2023-02-11T04:51:07;1013.5;;;1.1;79.6
53699;BME280;39591;53.952;27.612;2023-02-11T04:56:33;1013.3;;;1.2;75.1
53699;BME280;39591;53.952;27.612;2023-02-11T05:01:43;1013.3;;;1.2;74
53699;BME280;39591;53.952;27.612;2023-02-11T05:06:57;1013.1;;;1.3;73.4
53699;BME280;39591;53.952;27.612;2023-02-11T05:11:07;1013.1;;;1.2;73.7
53699;BME280;39591;53.952;27.612;2023-02-11T05:16:59;1013;;;1.2;74.1
53699;BME280;39591;53.952;27.612;2023-02-11T05:21:07;1012.9;;;1.1;74.3
53699;BME280;39591;53.952;27.612;2023-02-11T05:26:45;1012.8;;;1.1;74.6
53699;BME280;39591;53.952;27.612;2023-02-11T05:31:21;1012.7;;;1.2;75
53699;BME280;39591;53.952;27.612;2023-02-11T05:36:45;1012.6;;;1.2;74.7
53699;BME280;39591;53.952;27.612;2023-02-11T05:41:21;1012.4;;;1.3;74.2
53699;BME280;39591;53.952;27.612;2023-02-11T05:46:43;1012.4;;;1.3;74.5
53699;BME280;39591;53.952;27.612;2023-02-11T05:51:43;1012.3;;;1.3;74.5
53699;BME280;39591;53.952;27.612;2023-02-11T05:56:59;1012.2;;;1.3;74.3
53699;BME280;39591;53.952;27.612;2023-02-11T06:01:55;1012.2;;;1.4;74.1
53699;BME280;39591;53.952;27.612;2023-02-11T06:06:43;1012;;;1.4;73.9
53699;BME280;39591;53.952;27.612;2023-02-11T06:11:47;1011.9;;;1.5;73.9
53699;BME280;39591;53.952;27.612;2023-02-11T06:16:35;1011.9;;;1.5;74.1
53699;BME280;39591;53.952;27.612;2023-02-11T06:21:31;1011.8;;;1.6;74.3
53699;BME280;39591;53.952;27.612;2023-02-11T06:26:07;1011.7;;;1.5;75.8
53699;BME280;39591;53.952;27.612;2023-02-11T06:31:41;1011.7;;;1.5;75.2
53699;BME280;39591;53.952;27.612;2023-02-11T06:36:33;1011.6;;;1.5;75.4
53699;BME280;39591;53.952;27.612;2023-02-11T06:41:43;1011.4;;;1.6;76.8
53699;BME280;39591;53.952;27.612;2023-02-11T06:46:45;1011.3;;;1.6;76.1
53699;BME280;39591;53.952;27.612;2023-02-11T06:51:55;1011.2;;;1.7;75
53699;BME280;39591;53.952;27.612;2023-02-11T06:56:57;1011;;;1.7;74.4
53699;BME280;39591;53.952;27.612;2023-02-11T07:01:21;1011;;;1.6;76.1
53699;BME280;39591;53.952;27.612;2023-02-11T07:06:57;1011;;;1.5;77
53699;BME280;39591;53.952;27.612;2023-02-11T07:11:21;1011;;;1.5;77.8
53699;BME280;39591;53.952;27.612;2023-02-11T07:16:59;1010.9;;;1.5;77
53699;BME280;39591;53.952;27.612;2023-02-11T07:21:45;1010.7;;;1.6;75.8
53699;BME280;39591;53.952;27.612;2023-02-11T07:26:47;1010.6;;;1.7;76
53699;BME280;39591;53.952;27.612;2023-02-11T07:31:33;1010.5;;;1.8;75.5
53699;BME280;39591;53.952;27.612;2023-02-11T07:36:57;1010.5;;;1.8;75
53699;BME280;39591;53.952;27.612;2023-02-11T07:41:35;1010.5;;;1.8;74.4
53699;BME280;39591;53.952;27.612;2023-02-11T07:46:57;1010.4;;;1.8;74.3
53699;BME280;39591;53.952;27.612;2023-02-11T07:51:43;1010.3;;;1.8;74.6
53699;BME280;39591;53.952;27.612;2023-02-11T07:56:07;1010.1;;;1.9;74.9
53699;BME280;39591;53.952;27.612;2023-02-11T08:01:07;1010;;;1.9;75.1
53699;BME280;39591;53.952;27.612;2023-02-11T08:06:21;1009.9;;;1.9;75.3
53699;BME280;39591;53.952;27.612;2023-02-11T08:11:43;1009.8;;;2.1;75.3
53699;BME280;39591;53.952;27.612;2023-02-11T08:16:45;1009.7;;;2.2;75
53699;BME280;39591;53.952;27.612;2023-02-11T08:21:33;1009.7;;;2.2;74.8
53699;BME280;39591;53.952;27.612;2023-02-11T08:26:08;1009.5;;;2.2;75.4
53699;BME280;39591;53.952;27.612;2023-02-11T08:31:43;1009.3;;;2.3;75.1
53699;BME280;39591;53.952;27.612;2023-02-11T08:36:20;1009.1;;;2.4;74.7
53699;BME280;39591;53.952;27.612;2023-02-11T08:41:43;1009;;;2.4;74.8
53699;BME280;39591;53.952;27.612;2023-02-11T08:46:19;1008.9;;;2.4;74.6
53699;BME280;39591;53.952;27.612;2023-02-11T08:51:17;1008.8;;;2.4;74.6
53699;BME280;39591;53.952;27.612;2023-02-11T08:56:21;1008.6;;;2.3;74.6
53699;BME280;39591;53.952;27.612;2023-02-11T09:01:20;1008.6;;;2.4;74.7
53699;BME280;39591;53.952;27.612;2023-02-11T09:06:55;1008.6;;;2.5;75.4
53699;BME280;39591;53.952;27.612;2023-02-11T09:11:55;1008.5;;;2.6;75.6
53699;BME280;39591;53.952;27.612;2023-02-11T09:16:07;1008.3;;;2.7;74.9
53699;BME280;39591;53.952;27.612;2023-02-11T09:21:53;1008.3;;;2.9;72.9
53699;BME280;39591;53.952;27.612;2023-02-11T09:26:55;1008.3;;;2.8;72.4
53699;BME280;39591;53.952;27.612;2023-02-11T09:31:19;1008.2;;;2.9;72.5
53699;BME280;39591;53.952;27.612;2023-02-11T09:36:35;1008;;;3.1;71.9
53699;BME280;39591;53.952;27.612;2023-02-11T09:42:07;1007.9;;;3.2;71.5
53699;BME280;39591;53.952;27.612;2023-02-11T09:46:21;1007.7;;;3.1;72.3
53699;BME280;39591;53.952;27.612;2023-02-11T09:51:11;1007.6;;;3.1;72.4
53699;BME280;39591;53.952;27.612;2023-02-11T09:56:09;1007.5;;;3;72.9
53699;BME280;39591;53.952;27.612;2023-02-11T10:01:44;1007.4;;;2.9;73.4
53699;BME280;39591;53.952;27.612;2023-02-11T10:06:47;1007.4;;;2.8;73.4
53699;BME280;39591;53.952;27.612;2023-02-11T10:11:35;1007.2;;;2.8;73.2
53699;BME280;39591;53.952;27.612;2023-02-11T10:16:24;1007.1;;;2.8;73.2
53699;BME280;39591;53.952;27.612;2023-02-11T10:21:35;1007;;;2.9;73.4
53699;BME280;39591;53.952;27.612;2023-02-11T10:26:45;1006.9;;;2.9;73
53699;BME280;39591;53.952;27.612;2023-02-11T10:31:34;1006.9;;;3;72.9
53699;BME280;39591;53.952;27.612;2023-02-11T10:36:45;1006.9;;;3;72.7
53699;BME280;39591;53.952;27.612;2023-02-11T10:41:08;1006.8;;;2.8;73.6
53699;BME280;39591;53.952;27.612;2023-02-11T10:46:33;1006.7;;;2.8;73.7
53699;BME280;39591;53.952;27.612;2023-02-11T10:51:24;1006.6;;;2.9;73.5
53699;BME280;39591;53.952;27.612;2023-02-11T10:56:43;1006.5;;;3;73.3
53699;BME280;39591;53.952;27.612;2023-02-11T11:01:47;1006.5;;;2.9;74.3
53699;BME280;39591;53.952;27.612;2023-02-11T11:06:33;1006.4;;;2.9;74
53699;BME280;39591;53.952;27.612;2023-02-11T11:11:59;1006.4;;;2.9;74
53699;BME280;39591;53.952;27.612;2023-02-11T11:16:31;1006.3;;;2.9;74.2
53699;BME280;39591;53.952;27.612;2023-02-11T11:21:45;1006.1;;;2.7;74.7
53699;BME280;39591;53.952;27.612;2023-02-11T11:26:38;1006;;;2.7;75.3
53699;BME280;39591;53.952;27.612;2023-02-11T11:31:46;1005.9;;;2.6;75
53699;BME280;39591;53.952;27.612;2023-02-11T11:36:20;1005.8;;;2.6;75.2
53699;BME280;39591;53.952;27.612;2023-02-11T11:41:33;1005.8;;;2.7;75.3
53699;BME280;39591;53.952;27.612;2023-02-11T11:46:45;1005.6;;;2.7;74.7
53699;BME280;39591;53.952;27.612;2023-02-11T11:51:41;1005.5;;;2.7;74.8
53699;BME280;39591;53.952;27.612;2023-02-11T11:56:58;1005.5;;;2.8;75
53699;BME280;39591;53.952;27.612;2023-02-11T12:01:30;1005.4;;;3.1;73.9
53699;BME280;39591;53.952;27.612;2023-02-11T12:07:01;1005.3;;;3.2;73.3
53699;BME280;39591;53.952;27.612;2023-02-11T12:11:22;1005.3;;;3.3;72.6
53699;BME280;39591;53.952;27.612;2023-02-11T12:16:35;1005.1;;;3.3;72.4
53699;BME280;39591;53.952;27.612;2023-02-11T12:21:11;1005;;;3.3;72.6
53699;BME280;39591;53.952;27.612;2023-02-11T12:26:09;1004.9;;;3.2;72.4
53699;BME280;39591;53.952;27.612;2023-02-11T12:31:30;1004.9;;;3.2;72.5
53699;BME280;39591;53.952;27.612;2023-02-11T12:36:47;1004.9;;;3.1;72.5
53699;BME280;39591;53.952;27.612;2023-02-11T12:41:14;1004.8;;;3.1;72.6
53699;BME280;39591;53.952;27.612;2023-02-11T12:46:58;1004.8;;;3;74.3
53699;BME280;39591;53.952;27.612;2023-02-11T12:52:03;1004.8;;;2.9;77
53699;BME280;39591;53.952;27.612;2023-02-11T12:56:45;1004.7;;;2.7;75.3
53699;BME280;39591;53.952;27.612;2023-02-11T13:01:55;1004.6;;;2.6;74.9
53699;BME280;39591;53.952;27.612;2023-02-11T13:06:08;1004.6;;;2.6;75.2
53699;BME280;39591;53.952;27.612;2023-02-11T13:11:44;1004.5;;;2.7;75.9
53699;BME280;39591;53.952;27.612;2023-02-11T13:16:12;1004.5;;;2.7;75.9
53699;BME280;39591;53.952;27.612;2023-02-11T13:21:49;1004.4;;;2.7;75.2
53699;BME280;39591;53.952;27.612;2023-02-11T13:26:36;1004.4;;;2.7;75.3
53699;BME280;39591;53.952;27.612;2023-02-11T13:31:55;1004.3;;;2.7;75.6
53699;BME280;39591;53.952;27.612;2023-02-11T13:36:35;1004.3;;;2.7;75.5
53699;BME280;39591;53.952;27.612;2023-02-11T13:42:00;1004.3;;;2.7;75.8
53699;BME280;39591;53.952;27.612;2023-02-11T13:46:07;1004.3;;;2.6;77.3
53699;BME280;39591;53.952;27.612;2023-02-11T13:51:33;1004.3;;;2.6;78.9
53699;BME280;39591;53.952;27.612;2023-02-11T13:56:34;1004.3;;;2.6;78.7
53699;BME280;39591;53.952;27.612;2023-02-11T14:02:27;1004.2;;;2.6;78.5
53699;BME280;39591;53.952;27.612;2023-02-11T14:06:58;1004.2;;;2.6;77.6
53699;BME280;39591;53.952;27.612;2023-02-11T14:11:41;1004.2;;;2.6;77.1
53699;BME280;39591;53.952;27.612;2023-02-11T14:16:31;1004.2;;;2.6;76.9
53699;BME280;39591;53.952;27.612;2023-02-11T14:21:19;1004.2;;;2.6;76.9
53699;BME280;39591;53.952;27.612;2023-02-11T14:26:57;1004.2;;;2.5;77
53699;BME280;39591;53.952;27.612;2023-02-11T14:31:07;1004.2;;;2.4;76.9
53699;BME280;39591;53.952;27.612;2023-02-11T14:36:48;1004.3;;;2.5;77
53699;BME280;39591;53.952;27.612;2023-02-11T14:41:37;1004.2;;;2.4;76.9
53699;BME280;39591;53.952;27.612;2023-02-11T14:46:07;1004.2;;;2.5;77
53699;BME280;39591;53.952;27.612;2023-02-11T14:51:17;1004.2;;;2.6;76.8
53699;BME280;39591;53.952;27.612;2023-02-11T14:56:15;1004.2;;;2.6;76.7
53699;BME280;39591;53.952;27.612;2023-02-11T15:01:41;1004.2;;;2.6;76.8
53699;BME280;39591;53.952;27.612;2023-02-11T15:06:11;1004.1;;;2.6;76.5
53699;BME280;39591;53.952;27.612;2023-02-11T15:11:33;1004.1;;;2.6;76.6
53699;BME280;39591;53.952;27.612;2023-02-11T15:16:33;1004.1;;;2.6;76.7
53699;BME280;39591;53.952;27.612;2023-02-11T15:21:59;1004.2;;;2.6;76.7
53699;BME280;39591;53.952;27.612;2023-02-11T15:26:11;1004.2;;;2.6;76.7
53699;BME280;39591;53.952;27.612;2023-02-11T15:31:39;1004.3;;;2.7;76.6
53699;BME280;39591;53.952;27.612;2023-02-11T15:36:08;1004.3;;;2.8;76.3
53699;BME280;39591;53.952;27.612;2023-02-11T15:41:29;1004.3;;;2.8;76.2
53699;BME280;39591;53.952;27.612;2023-02-11T15:46:17;1004.4;;;2.8;76.3
53699;BME280;39591;53.952;27.612;2023-02-11T15:51:09;1004.4;;;2.8;76.4
53699;BME280;39591;53.952;27.612;2023-02-11T15:56:58;1004.5;;;2.7;76.6
53699;BME280;39591;53.952;27.612;2023-02-11T16:01:57;1004.5;;;2.8;76.8
53699;BME280;39591;53.952;27.612;2023-02-11T16:06:35;1004.5;;;2.8;76.8
53699;BME280;39591;53.952;27.612;2023-02-11T16:12:00;1004.5;;;2.8;76.5
53699;BME280;39591;53.952;27.612;2023-02-11T16:16:57;1004.5;;;2.9;76.7
53699;BME280;39591;53.952;27.612;2023-02-11T16:21:36;1004.5;;;2.9;77
53699;BME280;39591;53.952;27.612;2023-02-11T16:26:33;1004.6;;;2.9;77.3
53699;BME280;39591;53.952;27.612;2023-02-11T16:32:05;1004.6;;;2.9;77.6
53699;BME280;39591;53.952;27.612;2023-02-11T16:36:09;1004.7;;;2.9;77.5
53699;BME280;39591;53.952;27.612;2023-02-11T16:41:17;1004.8;;;2.9;77.5
53699;BME280;39591;53.952;27.612;2023-02-11T16:46:35;1004.9;;;3;77.3
53699;BME280;39591;53.952;27.612;2023-02-11T16:51:57;1005;;;3;77.3
53699;BME280;39591;53.952;27.612;2023-02-11T16:56:47;1005;;;3.1;77.3
53699;BME280;39591;53.952;27.612;2023-02-11T17:01:27;1005;;;3.1;77.2
53699;BME280;39591;53.952;27.612;2023-02-11T17:06:57;1005.1;;;3.2;77.2
53699;BME280;39591;53.952;27.612;2023-02-11T17:11:43;1005.2;;;3.1;76.9
53699;BME280;39591;53.952;27.612;2023-02-11T17:16:46;1005.3;;;3.1;76.9
53699;BME280;39591;53.952;27.612;2023-02-11T17:21:07;1005.5;;;3;77
53699;BME280;39591;53.952;27.612;2023-02-11T17:26:45;1005.7;;;3;77.1
53699;BME280;39591;53.952;27.612;2023-02-11T17:31:27;1005.8;;;3;77.2
53699;BME280;39591;53.952;27.612;2023-02-11T17:36:08;1005.8;;;3;77.2
53699;BME280;39591;53.952;27.612;2023-02-11T17:41:45;1005.9;;;3;77.1
53699;BME280;39591;53.952;27.612;2023-02-11T17:46:45;1006;;;3;77.1
53699;BME280;39591;53.952;27.612;2023-02-11T17:51:59;1006.1;;;3;77
53699;BME280;39591;53.952;27.612;2023-02-11T17:56:21;1006.3;;;3.1;77.1
53699;BME280;39591;53.952;27.612;2023-02-11T18:01:49;1006.4;;;3.1;77.1
53699;BME280;39591;53.952;27.612;2023-02-11T18:06:19;1006.5;;;3.1;77
53699;BME280;39591;53.952;27.612;2023-02-11T18:11:34;1006.8;;;3.1;77.1
53699;BME280;39591;53.952;27.612;2023-02-11T18:16:07;1007;;;3.1;76.8
53699;BME280;39591;53.952;27.612;2023-02-11T18:21:45;1007.2;;;3.1;76.8
53699;BME280;39591;53.952;27.612;2023-02-11T18:26:07;1007.3;;;3;76.4
53699;BME280;39591;53.952;27.612;2023-02-11T18:31:53;1007.6;;;3;76
53699;BME280;39591;53.952;27.612;2023-02-11T18:36:45;1007.6;;;3;75.6
53699;BME280;39591;53.952;27.612;2023-02-11T18:41:59;1007.7;;;3;75.5
53699;BME280;39591;53.952;27.612;2023-02-11T18:46:57;1007.9;;;3;75.2
53699;BME280;39591;53.952;27.612;2023-02-11T18:51:43;1008.1;;;3;75
53699;BME280;39591;53.952;27.612;2023-02-11T18:56:57;1008.3;;;2.9;74.8
53699;BME280;39591;53.952;27.612;2023-02-11T19:01:24;1008.5;;;2.9;75
53699;BME280;39591;53.952;27.612;2023-02-11T19:06:36;1008.6;;;2.8;75.5
53699;BME280;39591;53.952;27.612;2023-02-11T19:11:07;1008.8;;;2.6;76.9
53699;BME280;39591;53.952;27.612;2023-02-11T19:16:57;1008.9;;;2.5;77.5
53699;BME280;39591;53.952;27.612;2023-02-11T19:21:23;1009;;;2.4;76.8
53699;BME280;39591;53.952;27.612;2023-02-11T19:26:43;1009.1;;;2.4;75.8
53699;BME280;39591;53.952;27.612;2023-02-11T19:31:41;1009.2;;;2.3;75.7
53699;BME280;39591;53.952;27.612;2023-02-11T19:36:57;1009.4;;;2.3;75.6
53699;BME280;39591;53.952;27.612;2023-02-11T19:41:59;1009.5;;;2.3;75.9
53699;BME280;39591;53.952;27.612;2023-02-11T19:46:30;1009.7;;;2.3;76.7
53699;BME280;39591;53.952;27.612;2023-02-11T19:51:57;1009.9;;;2.2;76.6
53699;BME280;39591;53.952;27.612;2023-02-11T19:56:33;1010.1;;;2;74.6
53699;BME280;39591;53.952;27.612;2023-02-11T20:01:39;1010.4;;;1.8;72.7
53699;BME280;39591;53.952;27.612;2023-02-11T20:06:08;1010.8;;;1.7;70.5
53699;BME280;39591;53.952;27.612;2023-02-11T20:11:33;1010.8;;;1.6;70
53699;BME280;39591;53.952;27.612;2023-02-11T20:16:33;1010.9;;;1.4;69.6
53699;BME280;39591;53.952;27.612;2023-02-11T20:21:57;1011;;;1.3;69.5
53699;BME280;39591;53.952;27.612;2023-02-11T20:26:47;1011.2;;;1.3;69.6
53699;BME280;39591;53.952;27.612;2023-02-11T20:31:57;1011.5;;;1.2;70.1
53699;BME280;39591;53.952;27.612;2023-02-11T20:36:45;1011.7;;;1;68.1
53699;BME280;39591;53.952;27.612;2023-02-11T20:41:22;1011.8;;;0.9;66.9
53699;BME280;39591;53.952;27.612;2023-02-11T20:46:36;1012.1;;;0.8;65.9
53699;BME280;39591;53.952;27.612;2023-02-11T20:51:07;1012.2;;;0.6;65.3
53699;BME280;39591;53.952;27.612;2023-02-11T20:56:45;1012.4;;;0.5;64.4
53699;BME280;39591;53.952;27.612;2023-02-11T21:01:07;1012.6;;;0.3;63.9
53699;BME280;39591;53.952;27.612;2023-02-11T21:06:30;1012.8;;;0.2;64.2
53699;BME280;39591;53.952;27.612;2023-02-11T21:11:21;1012.9;;;0.1;64.2
53699;BME280;39591;53.952;27.612;2023-02-11T21:16:59;1013.1;;;0;63.7
53699;BME280;39591;53.952;27.612;2023-02-11T21:21:35;1013.2;;;-0.1;64.1
53699;BME280;39591;53.952;27.612;2023-02-11T21:26:31;1013.5;;;-0.1;64.5
53699;BME280;39591;53.952;27.612;2023-02-11T21:31:17;1013.5;;;-0.2;65.3
53699;BME280;39591;53.952;27.612;2023-02-11T21:36:07;1013.6;;;-0.2;66.2
53699;BME280;39591;53.952;27.612;2023-02-11T21:41:35;1013.8;;;-0.2;66.5
53699;BME280;39591;53.952;27.612;2023-02-11T21:46:07;1014;;;-0.3;66.4
53699;BME280;39591;53.952;27.612;2023-02-11T21:51:59;1014.2;;;-0.4;66.1
53699;BME280;39591;53.952;27.612;2023-02-11T21:56:57;1014.3;;;-0.4;66.2
53699;BME280;39591;53.952;27.612;2023-02-11T22:01:20;1014.4;;;-0.5;66.2
53699;BME280;39591;53.952;27.612;2023-02-11T22:06:49;1014.5;;;-0.5;66.1
53699;BME280;39591;53.952;27.612;2023-02-11T22:11:57;1014.6;;;-0.6;65.7
53699;BME280;39591;53.952;27.612;2023-02-11T22:16:19;1014.7;;;-0.7;65.4
53699;BME280;39591;53.952;27.612;2023-02-11T22:21:21;1014.9;;;-0.8;65.2
53699;BME280;39591;53.952;27.612;2023-02-11T22:26:59;1015;;;-0.8;64.9
53699;BME280;39591;53.952;27.612;2023-02-11T22:31:23;1015.1;;;-0.9;65.3
53699;BME280;39591;53.952;27.612;2023-02-11T22:36:09;1015.3;;;-0.9;65.4
53699;BME280;39591;53.952;27.612;2023-02-11T22:41:08;1015.4;;;-1;65.8
53699;BME280;39591;53.952;27.612;2023-02-11T22:46:43;1015.4;;;-1.1;65.5
53699;BME280;39591;53.952;27.612;2023-02-11T22:51:45;1015.5;;;-1.1;65.2
53699;BME280;39591;53.952;27.612;2023-02-11T22:56:31;1015.6;;;-1.1;65.3
53699;BME280;39591;53.952;27.612;2023-02-11T23:01:53;1015.7;;;-1.2;65.1
53699;BME280;39591;53.952;27.612;2023-02-11T23:06:17;1015.9;;;-1.2;65.1
53699;BME280;39591;53.952;27.612;2023-02-11T23:11:45;1016.1;;;-1.3;65.4
53699;BME280;39591;53.952;27.612;2023-02-11T23:16:08;1016.3;;;-1.3;65.4
53699;BME280;39591;53.952;27.612;2023-02-11T23:21:57;1016.5;;;-1.3;65.4
53699;BME280;39591;53.952;27.612;2023-02-11T23:26:08;1016.6;;;-1.3;65.4
53699;BME280;39591;53.952;27.612;2023-02-11T23:31:11;1016.7;;;-1.4;65.7
53699;BME280;39591;53.952;27.612;2023-02-11T23:36:35;1016.8;;;-1.4;65.9
53699;BME280;39591;53.952;27.612;2023-02-11T23:41:45;1017;;;-1.3;66
53699;BME280;39591;53.952;27.612;2023-02-11T23:46:57;1017.1;;;-1.3;66
53699;BME280;39591;53.952;27.612;2023-02-11T23:51:33;1017.2;;;-1.2;65.9
53699;BME280;39591;53.952;27.612;2023-02-11T23:56:59;1017.3;;;-1.1;65.8
